createdAt,value
2023-04-10T00:02:13.684Z,5.38
2023-04-10T00:05:19.682Z,5.31
2023-04-10T00:08:26.784Z,5.34
2023-04-10T00:11:35.317Z,5.26
2023-04-10T00:14:41.808Z,5.17
2023-04-10T00:17:47.330Z,5.09
2023-04-10T00:20:53.708Z,5.06
2023-04-10T00:23:59.204Z,5.05
2023-04-10T00:27:08.297Z,5.03
2023-04-10T00:30:14.726Z,5.04
2023-04-10T00:33:21.219Z,5.16
2023-04-10T00:36:28.262Z,5.23
2023-04-10T00:39:34.691Z,5.29
2023-04-10T00:42:43.791Z,5.31
2023-04-10T00:45:50.850Z,5.32
2023-04-10T00:48:59.381Z,5.37
2023-04-10T00:52:05.912Z,5.40
2023-04-10T00:55:13.933Z,5.45
2023-04-10T00:58:23.342Z,5.50
2023-04-10T01:01:28.908Z,5.50
2023-04-10T01:04:38.168Z,5.50
2023-04-10T01:08:03.656Z,5.41
2023-04-10T01:11:36.852Z,5.40
2023-04-10T01:14:59.408Z,5.42
2023-04-10T01:18:19.365Z,5.39
2023-04-10T01:21:28.053Z,5.34
2023-04-10T01:25:14.326Z,5.30
2023-04-10T01:28:45.727Z,5.35
2023-04-10T01:32:01.992Z,5.34
2023-04-10T01:35:12.129Z,5.34
2023-04-10T01:38:24.612Z,5.35
2023-04-10T01:41:33.864Z,5.36
2023-04-10T01:44:49.145Z,5.40
2023-04-10T01:47:56.588Z,5.44
2023-04-10T01:51:09.003Z,5.47
2023-04-10T01:54:16.575Z,5.42
2023-04-10T01:57:24.763Z,5.41
2023-04-10T02:00:45.881Z,5.37
2023-04-10T02:03:54.356Z,5.29
2023-04-10T02:07:08.092Z,5.29
2023-04-10T02:10:25.478Z,5.41
2023-04-10T02:13:33.955Z,5.45
2023-04-10T02:16:44.791Z,5.38
2023-04-10T02:19:56.522Z,5.27
2023-04-10T02:23:05.690Z,4.95
2023-04-10T02:26:12.646Z,5.08
2023-04-10T02:29:20.113Z,5.06
2023-04-10T02:32:28.825Z,5.11
2023-04-10T02:35:35.327Z,5.16
2023-04-10T02:38:42.101Z,5.12
2023-04-10T02:41:50.269Z,5.06
2023-04-10T02:44:56.292Z,5.09
2023-04-10T02:48:06.502Z,4.98
2023-04-10T02:51:12.040Z,4.93
2023-04-10T02:54:18.820Z,4.94
2023-04-10T02:57:24.535Z,4.88
2023-04-10T03:00:31.412Z,4.86
2023-04-10T03:03:55.215Z,4.93
2023-04-10T03:07:08.172Z,4.97
2023-04-10T03:10:16.360Z,5.04
2023-04-10T03:13:23.644Z,5.06
2023-04-10T03:16:29.307Z,5.10
2023-04-10T03:19:39.203Z,5.13
2023-04-10T03:22:45.412Z,5.08
2023-04-10T03:25:55.372Z,5.03
2023-04-10T03:29:04.910Z,5.06
2023-04-10T03:32:13.601Z,5.01
2023-04-10T03:35:22.782Z,4.98
2023-04-10T03:38:29.175Z,4.95
2023-04-10T03:41:34.755Z,4.90
2023-04-10T03:44:41.623Z,4.89
2023-04-10T03:47:47.646Z,4.95
2023-04-10T03:50:58.246Z,5.03
2023-04-10T03:54:03.978Z,5.02
2023-04-10T03:57:10.613Z,5.01
2023-04-10T04:00:17.809Z,5.05
2023-04-10T04:03:27.205Z,5.00
2023-04-10T04:07:07.427Z,5.03
2023-04-10T04:10:32.333Z,5.03
2023-04-10T04:13:50.328Z,5.00
2023-04-10T04:17:37.633Z,4.96
2023-04-10T04:20:43.204Z,4.93
2023-04-10T04:24:18.934Z,4.92
2023-04-10T04:28:05.271Z,4.95
2023-04-10T04:31:32.931Z,4.99
2023-04-10T04:34:57.994Z,4.96
2023-04-10T04:38:22.953Z,4.88
2023-04-10T04:42:17.744Z,4.79
2023-04-10T04:45:42.731Z,4.80
2023-04-10T04:49:14.788Z,4.82
2023-04-10T04:53:02.220Z,4.93
2023-04-10T04:56:51.812Z,4.96
2023-04-10T05:00:09.384Z,4.90
2023-04-10T05:04:00.861Z,4.75
2023-04-10T05:07:16.306Z,4.78
2023-04-10T05:10:36.476Z,4.88
2023-04-10T05:13:54.125Z,4.98
2023-04-10T05:17:05.747Z,5.04
2023-04-10T05:20:25.598Z,5.07
2023-04-10T05:23:58.432Z,5.08
2023-04-10T05:27:21.391Z,4.97
2023-04-10T05:30:32.610Z,4.99
2023-04-10T05:34:34.902Z,4.97
2023-04-10T05:37:49.925Z,5.02
2023-04-10T05:41:11.731Z,5.02
2023-04-10T05:44:29.495Z,5.09
2023-04-10T05:48:29.319Z,5.15
2023-04-10T05:52:00.210Z,5.20
2023-04-10T05:55:11.648Z,5.28
2023-04-10T05:58:19.815Z,5.37
2023-04-10T06:02:19.604Z,5.49
2023-04-10T06:05:26.114Z,5.50
2023-04-10T06:08:41.572Z,5.49
2023-04-10T06:11:47.447Z,5.51
2023-04-10T06:14:57.721Z,5.53
2023-04-10T06:18:04.206Z,5.51
2023-04-10T06:21:11.542Z,5.53
2023-04-10T06:24:20.284Z,5.57
2023-04-10T06:27:26.723Z,5.53
2023-04-10T06:30:34.452Z,5.49
2023-04-10T06:33:41.602Z,5.51
2023-04-10T06:36:49.003Z,5.53
2023-04-10T06:40:06.764Z,5.60
2023-04-10T06:43:12.242Z,5.62
2023-04-10T06:46:19.139Z,5.69
2023-04-10T06:49:28.373Z,5.66
2023-04-10T06:52:36.052Z,5.64
2023-04-10T06:55:44.349Z,5.67
2023-04-10T06:58:50.717Z,5.66
2023-04-10T07:01:56.341Z,5.60
2023-04-10T07:05:02.926Z,5.56
2023-04-10T07:08:09.218Z,5.47
2023-04-10T07:11:18.549Z,5.44
2023-04-10T07:14:24.125Z,5.46
2023-04-10T07:17:30.623Z,5.41
2023-04-10T07:20:36.163Z,5.41
2023-04-10T07:23:42.555Z,5.49
2023-04-10T07:26:51.108Z,5.55
2023-04-10T07:29:59.153Z,5.49
2023-04-10T07:33:04.887Z,5.43
2023-04-10T07:36:12.289Z,5.54
2023-04-10T07:39:17.799Z,5.54
2023-04-10T07:42:27.024Z,5.64
2023-04-10T07:45:32.505Z,5.66
2023-04-10T07:48:38.812Z,5.69
2023-04-10T07:51:44.420Z,5.58
2023-04-10T07:54:50.701Z,5.60
2023-04-10T07:57:59.354Z,5.71
2023-04-10T08:01:05.981Z,5.84
2023-04-10T08:04:12.449Z,6.00
2023-04-10T08:07:19.082Z,5.96
2023-04-10T08:10:24.567Z,6.02
2023-04-10T08:13:34.193Z,5.94
2023-04-10T08:16:40.246Z,6.00
2023-04-10T08:19:46.884Z,6.20
2023-04-10T08:22:52.577Z,6.34
2023-04-10T08:25:58.926Z,6.46
2023-04-10T08:29:07.418Z,6.53
2023-04-10T08:32:14.007Z,6.65
2023-04-10T08:35:19.508Z,6.77
2023-04-10T08:38:27.903Z,6.89
2023-04-10T08:41:33.448Z,6.96
2023-04-10T08:44:42.855Z,7.07
2023-04-10T08:47:54.652Z,7.11
2023-04-10T08:51:08.980Z,7.27
2023-04-10T08:54:31.686Z,7.45
2023-04-10T08:57:45.227Z,7.59
2023-04-10T09:00:57.218Z,7.66
2023-04-10T09:04:03.730Z,7.83
2023-04-10T09:07:10.523Z,7.94
2023-04-10T09:10:16.848Z,8.08
2023-04-10T09:13:40.643Z,8.09
2023-04-10T09:16:49.701Z,8.10
2023-04-10T09:19:58.335Z,8.11
2023-04-10T09:23:04.979Z,8.05
2023-04-10T09:26:31.506Z,7.74
2023-04-10T09:29:50.052Z,7.92
2023-04-10T09:32:58.829Z,7.88
2023-04-10T09:36:07.145Z,7.82
2023-04-10T09:39:15.899Z,7.78
2023-04-10T09:42:35.855Z,7.82
2023-04-10T09:45:55.276Z,7.88
2023-04-10T09:49:05.597Z,7.99
2023-04-10T09:52:22.890Z,8.19
2023-04-10T09:55:29.426Z,8.36
2023-04-10T09:58:35.255Z,8.47
2023-04-10T10:01:44.134Z,8.51
2023-04-10T10:04:55.037Z,8.50
2023-04-10T10:08:02.263Z,8.53
2023-04-10T10:11:12.706Z,8.56
2023-04-10T10:14:25.354Z,8.62
2023-04-10T10:17:40.445Z,8.72
2023-04-10T10:20:50.565Z,8.83
2023-04-10T10:24:00.043Z,8.86
2023-04-10T10:27:12.818Z,8.86
2023-04-10T10:30:29.937Z,8.90
2023-04-10T10:33:41.327Z,8.95
2023-04-10T10:36:50.736Z,8.89
2023-04-10T10:40:10.616Z,8.86
2023-04-10T10:43:28.094Z,8.88
2023-04-10T10:46:46.188Z,8.96
2023-04-10T10:50:00.959Z,9.06
2023-04-10T10:53:10.501Z,9.12
2023-04-10T10:56:39.140Z,9.32
2023-04-10T10:59:59.390Z,9.43
2023-04-10T11:03:32.033Z,9.53
2023-04-10T11:06:55.704Z,9.40
2023-04-10T11:10:03.982Z,9.68
2023-04-10T11:13:21.370Z,9.71
2023-04-10T11:16:45.603Z,9.80
2023-04-10T11:20:04.412Z,9.79
2023-04-10T11:23:16.122Z,10.11
2023-04-10T11:26:44.315Z,10.30
2023-04-10T11:29:50.007Z,10.57
2023-04-10T11:32:57.276Z,10.74
2023-04-10T11:36:03.317Z,10.81
2023-04-10T11:39:13.544Z,10.80
2023-04-10T11:42:24.625Z,10.77
2023-04-10T11:45:32.313Z,10.74
2023-04-10T11:48:38.677Z,10.75
2023-04-10T11:51:51.636Z,10.75
2023-04-10T11:54:57.110Z,10.71
2023-04-10T11:58:06.422Z,10.73
2023-04-10T12:01:14.737Z,10.79
2023-04-10T12:04:24.258Z,10.90
2023-04-10T12:07:33.155Z,10.92
2023-04-10T12:10:49.837Z,10.86
2023-04-10T12:14:00.118Z,10.74
2023-04-10T12:17:09.920Z,10.69
2023-04-10T12:20:18.470Z,10.66
2023-04-10T12:23:25.092Z,10.62
2023-04-10T12:26:30.670Z,10.61
2023-04-10T12:29:40.083Z,10.56
2023-04-10T12:32:56.144Z,10.51
2023-04-10T12:36:02.942Z,10.58
2023-04-10T12:39:24.559Z,10.41
2023-04-10T12:42:31.343Z,10.47
2023-04-10T12:45:49.252Z,10.57
2023-04-10T12:48:56.303Z,10.52
2023-04-10T12:52:02.033Z,10.51
2023-04-10T12:55:15.258Z,10.52
2023-04-10T12:58:28.346Z,10.60
2023-04-10T13:01:37.533Z,10.64
2023-04-10T13:04:43.235Z,10.83
2023-04-10T13:07:53.004Z,11.01
2023-04-10T13:11:03.162Z,11.22
2023-04-10T13:14:09.581Z,11.35
2023-04-10T13:17:17.835Z,11.32
2023-04-10T13:20:25.826Z,11.40
2023-04-10T13:23:31.296Z,11.64
2023-04-10T13:26:37.587Z,11.65
2023-04-10T13:29:45.596Z,11.67
2023-04-10T13:32:54.681Z,11.74
2023-04-10T13:36:00.268Z,11.75
2023-04-10T13:39:06.852Z,11.83
2023-04-10T13:42:13.289Z,11.97
2023-04-10T13:45:20.011Z,12.10
2023-04-10T13:48:37.317Z,12.24
2023-04-10T13:51:47.934Z,12.23
2023-04-10T13:54:53.393Z,12.19
2023-04-10T13:57:59.716Z,12.18
2023-04-10T14:01:05.498Z,12.27
2023-04-10T14:04:14.610Z,12.26
2023-04-10T14:07:21.767Z,12.40
2023-04-10T14:10:28.107Z,12.46
2023-04-10T14:13:33.682Z,12.41
2023-04-10T14:16:40.090Z,12.23
2023-04-10T14:19:51.784Z,12.11
2023-04-10T14:22:58.132Z,12.20
2023-04-10T14:26:03.743Z,12.37
2023-04-10T14:29:10.104Z,12.50
2023-04-10T14:32:15.796Z,12.56
2023-04-10T14:35:24.967Z,12.45
2023-04-10T14:38:30.436Z,12.38
2023-04-10T14:41:36.789Z,12.33
2023-04-10T14:44:42.297Z,12.24
2023-04-10T14:47:48.845Z,12.26
2023-04-10T14:50:59.302Z,12.33
2023-04-10T14:54:05.876Z,12.44
2023-04-10T14:57:12.619Z,12.61
2023-04-10T15:00:19.801Z,12.71
2023-04-10T15:03:25.513Z,12.65
2023-04-10T15:06:36.497Z,12.51
2023-04-10T15:09:41.995Z,12.30
2023-04-10T15:12:48.491Z,12.28
2023-04-10T15:15:54.534Z,12.33
2023-04-10T15:19:01.122Z,12.37
2023-04-10T15:22:09.353Z,12.41
2023-04-10T15:25:15.704Z,12.48
2023-04-10T15:28:21.183Z,12.59
2023-04-10T15:31:27.993Z,12.49
2023-04-10T15:34:33.501Z,12.28
2023-04-10T15:37:42.812Z,12.29
2023-04-10T15:40:48.261Z,12.35
2023-04-10T15:43:54.911Z,12.21
2023-04-10T15:47:00.543Z,12.34
2023-04-10T15:50:10.217Z,12.50
2023-04-10T15:53:18.981Z,12.65
2023-04-10T15:56:25.364Z,12.75
2023-04-10T15:59:31.063Z,12.85
2023-04-10T16:02:37.522Z,12.76
2023-04-10T16:05:43.141Z,12.74
2023-04-10T16:08:55.391Z,12.78
2023-04-10T16:12:02.284Z,12.80
2023-04-10T16:15:10.441Z,12.44
2023-04-10T16:18:16.408Z,12.12
2023-04-10T16:21:22.782Z,11.72
2023-04-10T16:24:32.761Z,11.38
2023-04-10T16:27:39.157Z,10.97
2023-04-10T16:30:44.658Z,10.57
2023-04-10T16:33:51.080Z,10.30
2023-04-10T16:36:56.550Z,10.13
2023-04-10T16:40:05.903Z,10.06
2023-04-10T16:43:12.357Z,10.03
2023-04-10T16:46:18.805Z,10.00
2023-04-10T16:49:25.544Z,10.00
2023-04-10T16:52:32.453Z,9.92
2023-04-10T16:55:40.734Z,9.79
2023-04-10T16:58:47.380Z,9.58
2023-04-10T17:01:55.246Z,9.36
2023-04-10T17:05:01.811Z,9.16
2023-04-10T17:08:07.923Z,8.96
2023-04-10T17:11:17.520Z,8.92
2023-04-10T17:14:23.287Z,8.90
2023-04-10T17:17:29.685Z,8.83
2023-04-10T17:20:39.255Z,8.75
2023-04-10T17:23:46.210Z,8.72
2023-04-10T17:26:54.611Z,8.71
2023-04-10T17:30:00.912Z,8.62
2023-04-10T17:33:07.050Z,8.57
2023-04-10T17:36:15.941Z,8.54
2023-04-10T17:39:21.502Z,8.49
2023-04-10T17:42:30.622Z,8.48
2023-04-10T17:45:39.050Z,8.47
2023-04-10T17:48:45.673Z,8.46
2023-04-10T17:51:52.447Z,8.33
2023-04-10T17:54:58.876Z,8.37
2023-04-10T17:58:07.445Z,8.30
2023-04-10T18:01:13.832Z,8.27
2023-04-10T18:04:19.773Z,8.26
2023-04-10T18:07:26.267Z,8.25
2023-04-10T18:10:31.965Z,8.23
2023-04-10T18:13:41.085Z,8.21
2023-04-10T18:16:46.699Z,8.16
2023-04-10T18:19:55.991Z,8.14
2023-04-10T18:23:04.072Z,8.15
2023-04-10T18:26:11.680Z,8.18
2023-04-10T18:29:20.154Z,8.21
2023-04-10T18:32:26.968Z,8.20
2023-04-10T18:35:32.611Z,8.24
2023-04-10T18:38:41.432Z,8.28
2023-04-10T18:41:47.063Z,8.26
2023-04-10T18:44:56.484Z,8.37
2023-04-10T18:48:02.162Z,8.41
2023-04-10T18:51:09.118Z,8.47
2023-04-10T18:54:15.106Z,8.50
2023-04-10T18:57:21.560Z,8.50
2023-04-10T19:00:32.315Z,8.60
2023-04-10T19:03:40.937Z,8.65
2023-04-10T19:06:47.224Z,8.66
2023-04-10T19:09:54.224Z,8.66
2023-04-10T19:13:01.315Z,8.61
2023-04-10T19:16:14.817Z,8.58
2023-04-10T19:19:21.631Z,8.54
2023-04-10T19:22:28.394Z,8.49
2023-04-10T19:25:34.276Z,8.45
2023-04-10T19:28:40.955Z,8.42
2023-04-10T19:31:50.095Z,8.41
2023-04-10T19:34:57.446Z,8.40
2023-04-10T19:38:04.498Z,8.41
2023-04-10T19:41:18.586Z,8.33
2023-04-10T19:44:25.726Z,8.26
2023-04-10T19:47:35.999Z,8.09
2023-04-10T19:50:41.969Z,7.94
2023-04-10T19:53:48.790Z,7.86
2023-04-10T19:56:54.468Z,7.76
2023-04-10T20:00:01.315Z,7.67
2023-04-10T20:03:26.903Z,7.63
2023-04-10T20:06:33.514Z,7.58
2023-04-10T20:09:39.612Z,7.56
2023-04-10T20:12:46.193Z,7.50
2023-04-10T20:15:52.563Z,7.50
2023-04-10T20:19:01.938Z,7.45
2023-04-10T20:22:07.574Z,7.36
2023-04-10T20:25:14.068Z,7.28
2023-04-10T20:28:20.223Z,7.17
2023-04-10T20:31:27.750Z,7.12
2023-04-10T20:34:37.032Z,7.13
2023-04-10T20:37:43.781Z,7.09
2023-04-10T20:40:49.609Z,7.10
2023-04-10T20:43:57.709Z,7.09
2023-04-10T20:47:04.159Z,7.07
2023-04-10T20:50:15.217Z,7.06
2023-04-10T20:53:21.284Z,7.04
2023-04-10T20:56:36.696Z,7.03
2023-04-10T20:59:48.838Z,6.70
2023-04-10T21:02:55.348Z,6.93
2023-04-10T21:06:06.749Z,6.89
2023-04-10T21:09:13.196Z,6.87
2023-04-10T21:12:18.746Z,6.83
2023-04-10T21:15:25.533Z,6.81
2023-04-10T21:18:31.276Z,6.79
2023-04-10T21:21:40.811Z,6.79
2023-04-10T21:24:46.301Z,6.77
2023-04-10T21:27:52.664Z,6.79
2023-04-10T21:30:58.441Z,6.77
2023-04-10T21:34:04.880Z,6.73
2023-04-10T21:37:13.339Z,6.64
2023-04-10T21:40:19.840Z,6.63
2023-04-10T21:43:25.900Z,6.60
2023-04-10T21:46:33.345Z,6.56
2023-04-10T21:49:38.992Z,6.51
2023-04-10T21:52:48.419Z,6.42
2023-04-10T21:55:53.918Z,6.29
2023-04-10T21:59:00.307Z,6.25
2023-04-10T22:02:05.961Z,6.17
2023-04-10T22:05:12.846Z,6.14
2023-04-10T22:08:22.259Z,6.03
2023-04-10T22:11:28.804Z,6.00
2023-04-10T22:14:34.370Z,6.00
2023-04-10T22:17:41.152Z,6.00
2023-04-10T22:20:46.801Z,6.01
2023-04-10T22:23:56.055Z,6.02
2023-04-10T22:27:01.771Z,5.71
2023-04-10T22:30:10.104Z,5.89
2023-04-10T22:33:15.806Z,5.81
2023-04-10T22:36:24.659Z,5.72
2023-04-10T22:39:32.894Z,5.66
2023-04-10T22:42:39.290Z,5.63
2023-04-10T22:45:45.376Z,5.66
2023-04-10T22:48:52.322Z,5.71
2023-04-10T22:51:58.019Z,5.81
2023-04-10T22:55:09.161Z,5.87
2023-04-10T22:58:14.925Z,5.91
2023-04-10T23:01:21.937Z,5.94
2023-04-10T23:04:27.766Z,5.96
2023-04-10T23:07:34.158Z,6.00
2023-04-10T23:10:42.462Z,5.96
2023-04-10T23:13:49.065Z,5.94
2023-04-10T23:16:54.757Z,5.96
2023-04-10T23:20:01.134Z,5.92
2023-04-10T23:23:06.613Z,5.91
2023-04-10T23:26:15.910Z,5.86
2023-04-10T23:29:21.322Z,5.81
2023-04-10T23:32:28.023Z,5.79
2023-04-10T23:35:33.892Z,5.80
2023-04-10T23:38:40.243Z,5.75
2023-04-10T23:41:48.866Z,5.72
2023-04-10T23:44:55.210Z,5.68
2023-04-10T23:48:00.791Z,5.64
2023-04-10T23:51:08.789Z,5.60
2023-04-10T23:54:15.958Z,5.56
2023-04-10T23:57:25.309Z,5.51
